Have a Safe July 4th! 

Flight Track Log - Related Links

Times and Time Zones

All times are in EDT time to prevent confusion due to time zone crossing. See the AAY824 flight status page for this flight to view local times or setup timezone preferences in your user account.

Time Position Orientation Groundspeed Altitude Reporting Facility
EDT Latitude Longitude Course Direction KTS MPH feet Rate Location/Type
Sun 08:38:19 AM 27.9000 -82.6833 180° South 191 220 600  Level Tampa TRACON
Sun 08:38:43 AM 27.8667 -82.6833 180° South 170 196 1,600 1,667 Climbing Tampa TRACON
Sun 08:39:49 AM 27.8167 -82.7000 196° South 231 266 3,100 1,524 Climbing Tampa TRACON
Sun 08:40:49 AM 27.8500 -82.7667 299° West 288 331 4,800 1,976 Climbing Tampa TRACON
Sun 08:43:58 AM 28.0978 -82.7892 355° North 309 356 11,300 1,904 Climbing Jacksonville Center
Sun 08:44:58 AM 28.2000 -82.7936 358° North 342 394 12,700 1,800 Climbing Jacksonville Center
Sun 08:45:58 AM 28.3086 -82.8053 355° North 375 432 14,900 2,200 Climbing Jacksonville Center
Sun 08:46:58 AM 28.4275 -82.8122 357° North 398 458 17,100 1,950 Climbing Jacksonville Center
Sun 08:47:58 AM 28.5403 -82.8431 346° North 410 472 18,800 1,600 Climbing Jacksonville Center
Sun 08:48:58 AM 28.6611 -82.8689 349° North 422 486 20,300 1,450 Climbing Jacksonville Center
Sun 08:49:58 AM 28.7761 -82.9139 341° North 427 491 21,700 1,700 Climbing Jacksonville Center
Sun 08:50:58 AM 28.8783 -82.9922 326° Northwest 433 498 23,700 1,700 Climbing Jacksonville Center
Sun 08:51:58 AM 28.9867 -83.0586 332° Northwest 438 504 25,100 1,400 Climbing Jacksonville Center
Sun 08:52:58 AM 29.0931 -83.1372 327° Northwest 445 512 26,500 1,800 Climbing Jacksonville Center
Sun 08:53:58 AM 29.1994 -83.2067 330° Northwest 450 518 28,700 1,500 Climbing Jacksonville Center
Sun 08:54:58 AM 29.2972 -83.2808 327° Northwest 444 511 29,500 900 Climbing Jacksonville Center
Sun 08:55:58 AM 29.3992 -83.3550 328° Northwest 438 504 30,500 900 Climbing Jacksonville Center
Sun 08:56:58 AM 29.5033 -83.4294 328° Northwest 433 498 31,300 750 Climbing Jacksonville Center
Sun 08:57:58 AM 29.6136 -83.5114 327° Northwest 433 498 32,000 350 Climbing Jacksonville Center
Sun 08:58:58 AM 29.7178 -83.5814 330° Northwest 433 498 32,000  Level Jacksonville Center
Sun 08:59:58 AM 29.8175 -83.6561 327° Northwest 433 498 32,000  Level Jacksonville Center
Sun 09:00:58 AM 29.9236 -83.7267 330° Northwest 438 504 32,000  Level Jacksonville Center
Sun 09:01:58 AM 30.0231 -83.8017 327° Northwest 433 498 32,000  Level Jacksonville Center
Sun 09:02:58 AM 30.1250 -83.8747 328° Northwest 433 498 32,000  Level Jacksonville Center
Sun 09:03:58 AM 30.2244 -83.9481 328° Northwest 433 498 32,000  Level Jacksonville Center
Sun 09:04:58 AM 30.3261 -84.0211 328° Northwest 433 498 32,000  Level Jacksonville Center
Sun 09:05:58 AM 30.4278 -84.0947 328° Northwest 433 498 32,000  Level Jacksonville Center
Sun 09:06:58 AM 30.5317 -84.1683 329° Northwest 433 498 32,000  Level Jacksonville Center
Sun 09:07:58 AM 30.6289 -84.2419 327° Northwest 433 498 32,000  Level Jacksonville Center
Sun 09:08:58 AM 30.7325 -84.3183 328° Northwest 433 498 32,000  Level Jacksonville Center
Sun 09:09:58 AM 30.8319 -84.3903 328° Northwest 433 498 32,000  Level Jacksonville Center
Sun 09:11:41 AM 30.9922 -84.5086 328° Northwest 434 499 32,000  Level Atlanta Center
Sun 09:12:41 AM 31.0942 -84.5869 327° Northwest 434 499 32,000  Level Atlanta Center
Sun 09:13:41 AM 31.1942 -84.6556 330° Northwest 428 493 32,000  Level Atlanta Center
Sun 09:14:41 AM 31.2917 -84.7364 325° Northwest 428 493 32,000  Level Atlanta Center
Sun 09:15:41 AM 31.4039 -84.8125 330° Northwest 433 498 32,000  Level Atlanta Center
Sun 09:16:41 AM 31.5017 -84.8914 325° Northwest 433 498 32,000  Level Atlanta Center
Sun 09:17:41 AM 31.6053 -84.9656 329° Northwest 433 498 32,000  Level Atlanta Center
Sun 09:18:41 AM 31.7050 -85.0444 326° Northwest 433 498 32,000  Level Atlanta Center
Sun 09:19:41 AM 31.8067 -85.1167 329° Northwest 433 498 32,000  Level Atlanta Center
Sun 09:20:41 AM 31.9042 -85.1911 327° Northwest 428 493 32,000  Level Atlanta Center
Sun 09:21:41 AM 32.0078 -85.2636 329° Northwest 428 493 32,000  Level Atlanta Center
Sun 09:22:41 AM 32.1050 -85.3433 325° Northwest 428 493 32,000  Level Atlanta Center
Sun 09:23:41 AM 32.2086 -85.4161 329° Northwest 434 499 32,000  Level Atlanta Center
Sun 09:24:41 AM 32.3078 -85.4961 326° Northwest 434 499 32,000  Level Atlanta Center
Sun 09:25:41 AM 32.4092 -85.5692 329° Northwest 428 493 32,000  Level Atlanta Center
Sun 09:26:41 AM 32.5083 -85.6522 325° Northwest 434 499 32,000  Level Atlanta Center
Sun 09:27:41 AM 32.6097 -85.7231 330° Northwest 434 499 32,000  Level Atlanta Center
Sun 09:28:41 AM 32.7108 -85.8039 326° Northwest 434 499 32,000  Level Atlanta Center
Sun 09:29:41 AM 32.8119 -85.8800 328° Northwest 434 499 32,000  Level Atlanta Center
Sun 09:30:41 AM 32.9089 -85.9589 326° Northwest 434 499 32,000  Level Atlanta Center
Sun 09:31:41 AM 33.0122 -86.0331 329° Northwest 434 499 32,000  Level Atlanta Center
Sun 09:32:41 AM 33.1108 -86.1169 325° Northwest 434 499 32,000  Level Atlanta Center
Sun 09:33:41 AM 33.2119 -86.1939 328° Northwest 434 499 32,000  Level Atlanta Center
Sun 09:34:41 AM 33.3086 -86.2758 325° Northwest 434 499 32,000  Level Atlanta Center
Sun 09:35:41 AM 33.4094 -86.3481 329° Northwest 434 499 32,000  Level Atlanta Center
Sun 09:36:41 AM 33.5061 -86.4281 325° Northwest 429 494 32,000  Level Atlanta Center
Sun 09:37:41 AM 33.5944 -86.4953 328° Northwest 424 488 32,000  Level Atlanta Center
Sun 09:38:41 AM 33.6889 -86.5753 325° Northwest 424 488 32,000  Level Atlanta Center
Sun 09:39:41 AM 33.7894 -86.6508 328° Northwest 424 488 32,000  Level Atlanta Center
Sun 09:41:24 AM 33.9578 -86.7892 326° Northwest 420 483 32,000  Level Memphis Center
Sun 09:42:26 AM 34.0564 -86.8661 327° Northwest 421 484 32,000  Level Memphis Center
Sun 09:43:27 AM 34.1531 -86.9458 326° Northwest 421 484 32,000  Level Memphis Center
Sun 09:44:29 AM 34.2517 -87.0233 327° Northwest 421 484 32,000  Level Memphis Center
Sun 09:45:30 AM 34.3686 -87.1186 326° Northwest 421 484 32,000  Level Memphis Center
Sun 09:46:32 AM 34.4661 -87.1983 326° Northwest 424 488 32,000  Level Memphis Center
Sun 09:47:33 AM 34.5667 -87.2764 327° Northwest 424 488 32,000  Level Memphis Center
Sun 09:48:35 AM 34.6594 -87.3533 326° Northwest 424 488 32,000  Level Memphis Center
Sun 09:49:36 AM 34.7550 -87.4336 325° Northwest 423 487 32,000  Level Memphis Center
Sun 09:50:38 AM 34.8711 -87.5294 326° Northwest 423 487 32,000  Level Memphis Center
Sun 09:51:39 AM 34.9672 -87.6089 326° Northwest 422 486 32,000  Level Memphis Center
Sun 09:52:41 AM 35.0636 -87.6883 326° Northwest 421 484 32,000  Level Memphis Center
Sun 09:53:42 AM 35.1603 -87.7708 325° Northwest 421 484 32,000  Level Memphis Center
Sun 09:54:44 AM 35.2583 -87.8497 327° Northwest 424 488 32,000  Level Memphis Center
Sun 09:55:45 AM 35.3553 -87.9319 325° Northwest 424 488 32,000  Level Memphis Center
Sun 09:56:47 AM 35.4628 -88.0189 327° Northwest 426 490 32,000  Level Memphis Center
Sun 09:57:48 AM 35.5608 -88.1036 325° Northwest 425 489 32,000  Level Memphis Center
Sun 09:58:49 AM 35.6547 -88.1772 328° Northwest 426 490 32,000  Level Memphis Center
Sun 09:59:51 AM 35.7692 -88.2789 324° Northwest 425 489 32,000  Level Memphis Center
Sun 10:00:52 AM 35.8678 -88.3608 326° Northwest 428 493 32,000  Level Memphis Center
Sun 10:01:54 AM 35.9644 -88.4450 325° Northwest 427 491 32,000  Level Memphis Center
Sun 10:02:55 AM 36.0628 -88.5269 326° Northwest 427 491 32,000  Level Memphis Center
Sun 10:03:57 AM 36.1597 -88.6108 325° Northwest 427 491 32,000  Level Memphis Center
Sun 10:04:59 AM 36.2600 -88.6947 326° Northwest 430 495 32,000  Level Memphis Center
Sun 10:06:00 AM 36.3575 -88.7819 324° Northwest 431 496 32,000  Level Memphis Center
Sun 10:07:02 AM 36.4769 -88.8828 326° Northwest 432 497 32,000 488 Level Memphis Center
Sun 10:08:03 AM 36.5756 -88.9658 326° Northwest 432 497 33,000 488 Climbing Memphis Center
Sun 10:09:05 AM 36.6739 -89.0514 325° Northwest 433 498 33,000  Level Memphis Center
Sun 10:10:06 AM 36.7708 -89.1414 323° Northwest 434 499 33,000  Level Memphis Center
Sun 10:11:08 AM 36.8725 -89.2264 326° Northwest 441 507 33,000 290 Level Memphis Center
Sun 10:12:10 AM 36.9711 -89.3172 324° Northwest 441 507 33,600 488 Climbing Memphis Center
Sun 10:13:11 AM 37.0728 -89.4008 327° Northwest 441 507 34,000 195 Climbing Memphis Center
Sun 10:14:13 AM 37.1900 -89.5086 324° Northwest 437 503 34,000  Level Memphis Center
Sun 10:15:14 AM 37.2911 -89.5978 325° Northwest 441 507 34,000  Level Memphis Center
Sun 10:16:16 AM 37.3900 -89.6892 324° Northwest 441 507 34,000  Level Memphis Center
Sun 10:17:18 AM 37.4936 -89.7742 327° Northwest 442 509 34,000  Level Memphis Center
Sun 10:18:19 AM 37.5914 -89.8700 322° Northwest 443 510 34,000  Level Memphis Center
Sun 10:19:21 AM 37.6953 -89.9558 327° Northwest 443 510 34,000  Level Memphis Center
Sun 10:20:23 AM 37.7944 -90.0514 323° Northwest 444 511 34,000  Level Memphis Center
Sun 10:21:50 AM 37.9467 -90.1867 325° Northwest 446 513 34,000  Level Kansas City Center
Sun 10:22:52 AM 38.0506 -90.2758 326° Northwest 448 516 34,000  Level Kansas City Center
Sun 10:23:53 AM 38.1486 -90.3700 323° Northwest 446 513 34,000  Level Kansas City Center
Sun 10:24:54 AM 38.2503 -90.4608 325° Northwest 444 511 34,000  Level Kansas City Center
Sun 10:25:55 AM 38.3506 -90.5578 323° Northwest 447 514 34,000  Level Kansas City Center
Sun 10:26:57 AM 38.4628 -90.6550 326° Northwest 447 514 34,000  Level Kansas City Center
Sun 10:27:58 AM 38.5722 -90.7644 322° Northwest 446 513 34,000  Level Kansas City Center
Sun 10:28:59 AM 38.6750 -90.8550 325° Northwest 445 512 34,000  Level Kansas City Center
Sun 10:30:00 AM 38.7742 -90.9511 323° Northwest 445 512 34,000  Level Kansas City Center
Sun 10:31:02 AM 38.8758 -91.0414 325° Northwest 445 512 34,000  Level Kansas City Center
Sun 10:32:03 AM 38.9725 -91.1392 322° Northwest 442 509 34,000 -492 Level Kansas City Center
Sun 10:33:04 AM 39.0742 -91.2269 326° Northwest 440 506 33,000 -984 Descending Kansas City Center
Sun 10:34:05 AM 39.1700 -91.3272 321° Northwest 441 507 32,000 -976 Descending Kansas City Center
Sun 10:35:07 AM 39.2725 -91.4197 325° Northwest 445 512 31,000 -488 Descending Kansas City Center
Sun 10:36:08 AM 39.3722 -91.5161 323° Northwest 448 516 31,000  Level Kansas City Center
Sun 10:37:09 AM 39.4731 -91.6125 324° Northwest 448 516 31,000  Level Kansas City Center
Sun 10:38:10 AM 39.5869 -91.7211 324° Northwest 449 517 31,000  Level Kansas City Center
Sun 10:39:11 AM 39.6878 -91.8142 325° Northwest 449 517 31,000  Level Kansas City Center
Sun 10:40:13 AM 39.7853 -91.9128 322° Northwest 448 516 31,000  Level Kansas City Center
Sun 10:41:14 AM 39.8853 -92.0100 323° Northwest 450 518 31,000 -295 Level Kansas City Center
Sun 10:42:15 AM 39.9853 -92.1094 323° Northwest 450 518 30,400 -732 Descending Kansas City Center
Sun 10:43:17 AM 40.0842 -92.2069 323° Northwest 451 519 29,500 -1,024 Descending Kansas City Center
Sun 10:44:18 AM 40.2053 -92.3253 323° Northwest 453 521 28,300 -1,033 Descending Kansas City Center
Sun 10:45:19 AM 40.3000 -92.4153 324° Northwest 459 528 27,400 -927 Descending Kansas City Center
Sun 10:46:21 AM 40.4017 -92.5161 323° Northwest 459 528 26,400 -1,073 Descending Kansas City Center
Sun 10:47:22 AM 40.5025 -92.6167 323° Northwest 457 526 25,200 -1,574 Descending Kansas City Center
Sun 10:48:23 AM 40.6200 -92.7322 323° Northwest 450 518 23,200 -1,862 Descending Kansas City Center
Sun 10:49:18 AM 40.6947 -92.8139 320° Northwest 444 511 21,600 -1,897 Descending Chicago Center
Sun 10:50:20 AM 40.7956 -92.9031 326° Northwest 442 509 19,500 -2,371 Descending Chicago Center
Sun 10:51:22 AM 40.9053 -93.0244 320° Northwest 436 502 16,700 -2,371 Descending Chicago Center
Sun 10:52:24 AM 40.9961 -93.1208 321° Northwest 424 488 14,600 -1,902 Descending Chicago Center
Sun 10:53:25 AM 41.0764 -93.2219 317° Northwest 409 471 12,800 -1,610 Descending Chicago Center
Sun 10:54:27 AM 41.1539 -93.3236 315° West 402 463 11,300 -1,355 Descending Chicago Center
Sun 10:55:29 AM 41.2294 -93.4219 316° Northwest 391 450 10,000 -842 Descending Chicago Center
Sun 10:56:21 AM 41.3008 -93.5036 319° Northwest 333 383 9,700 -514 Descending Minneapolis Center
Sun 10:56:39 AM 41.3136 -93.5378 296° West 335 386 9,400 -1,475 Descending Minneapolis Center
Sun 10:57:22 AM 41.3644 -93.5850 325° Northwest 305 351 8,200 -1,770 Descending Minneapolis Center
Sun 10:57:40 AM 41.3764 -93.6181 296° West 318 366 7,600 -1,655 Descending Minneapolis Center
Sun 10:58:20 AM 41.4219 -93.6694 320° Northwest 306 352 6,600 -1,548 Descending Minneapolis Center
Sun 10:58:42 AM 41.4381 -93.7100 298° West 309 356 6,000 -1,429 Descending Minneapolis Center
Sun 10:59:23 AM 41.4814 -93.7483 326° Northwest 298 343 5,100 -1,429 Descending Minneapolis Center
Sun 10:59:45 AM 41.4983 -93.7867 301° West 299 344 4,500 -1,831 Descending Minneapolis Center
Sun 11:00:22 AM 41.5428 -93.8219 329° Northwest 293 337 3,300 -1,742 Descending Minneapolis Center
Sun 11:00:47 AM 41.5622 -93.8581 306° West 300 345 2,700 -787 Descending Minneapolis Center
Sun 11:01:23 AM 41.6075 -93.8372 19° North 243 280 2,500 -295 Descending Minneapolis Center
Sun 11:01:48 AM 41.6078 -93.8225 89° East 202 232 2,400 -98 Descending Minneapolis Center
Sun 11:02:24 AM 41.6108 -93.7733 85° East 151 174 2,400 98 Level Minneapolis Center
Sun 11:02:49 AM 41.5997 -93.7547 129° Southeast 174 200 2,500 -305 Climbing Minneapolis Center
Sun 11:03:23 AM 41.5894 -93.7211 112° Southeast 147 169 2,100 -774 Descending Minneapolis Center
Sun 11:03:51 AM 41.5728 -93.7147 164° South 143 165 1,700 -787 Descending Minneapolis Center
Sun 11:04:24 AM 41.5639 -93.6856 112° Southeast 121 139 1,300 -590 Descending Minneapolis Center
Sun 11:04:52 AM 41.5494 -93.6800 164° South 130 150 1,100 -202 Descending Minneapolis Center
Sun 11:05:53 AM 41.5314 -93.6539 133° Southeast 81 93 1,000 -49 Descending Minneapolis Center
Sun 11:06:54 AM 41.5292 -93.6475 115° Southeast 37 43 1,000  Level Minneapolis Center

Login

Don't have an account? Register now (free) for customized features, flight alerts, and more!